Allendale, California
Current Conditions -  °F | °C
As of 8:31 AM on Friday 19 Dec 2014 (Local Time) from KVCB Reporting Station
Moderate Rain Moderate Rain  
Wind Chill: 52°   Ceiling: 2500
Heat Index: 52°   Visibility: 1.7mi
Dew Point: 50°   Wind: 3mph
Humidity: 93%   Direction: 120°ESE
Pressure: 30.15"   Gusts: NA
Location:  38.4195°N, 122.026°W
Report Text: KVCB 191631Z AUTO 12003KT 1 3/4SM RA BR FEW013 OVC025 11/10 A3015 RMK AO2 RAB14 P0003 T01110100 TSNO
Loading
Personal Weather Stations






























Interactive Weather Map New forecast layout! Learn more

10-Day Weather Forecast

Advertisements
Track Severe Weather on mobile